Terminal Aerodrome Forecast
Issued by NWS

Home | Current Version | Previous Version | Text Only | Print | Product List | Glossary On
Versions: 1 2 3 4 5 6 7 8 9 10 11 12 13
000
FTUS45 KPSR 252327
TAFBLH
TAF
KBLH 252327Z 2600/2624 25026G34KT 6SM BLDU FEW070 SCT120
     FM260300 26020G28KT P6SM VCSH SCT070 BKN100
     FM261000 30008KT P6SM FEW100 SCT200 WS020/32035KT
     FM261500 34017G25KT P6SM FEW080 SCT200=

USA.gov is the U.S. government's official web portal to all federal, state and local government web resources and services.